STLON26 ETSH-ETSH
Flight info
| Callsign | STLON26 |
|---|---|
| Flight time | 1h 28m |
| Altitude | 1111 |
| Route | DCT 5142N01317E DCT UWBAZ DCT EDAU DCT 5107N01334E DCT 5103N01349E DCT 5057N01405E DCT 5104N01414E DCT EDCM DCT OSKAN DCT 5136N01331E DCT 5142N01317E DCT |
| Aircraft | EC35/L-SDFGRUY/S |
Departure
| Time | 2026-04-29 18:26 |
|---|---|
| Airport | Holzdorf Air Base (ETSH) |
Arrival
| Time | 2026-04-29 19:54 |
|---|---|
| Airport | Holzdorf Air Base (ETSH) |
| Time | Latitude | Longitude | Altitude | Speed | Heading |
|---|---|---|---|---|---|
| 2026-04-29 18:00 | 51.77123 | 13.15548 | 267 ft | 0 kts | 270° |
| 2026-04-29 18:20 | 51.77121 | 13.15553 | 273 ft | 1 kts | 282° |
| 2026-04-29 18:20 | 51.77150 | 13.15515 | 270 ft | 7 kts | 300° |
| 2026-04-29 18:20 | 51.77158 | 13.15409 | 267 ft | 10 kts | 276° |
| 2026-04-29 18:20 | 51.77132 | 13.15332 | 266 ft | 10 kts | 185° |
| 2026-04-29 18:21 | 51.77044 | 13.15324 | 266 ft | 11 kts | 185° |
| 2026-04-29 18:21 | 51.77019 | 13.15266 | 265 ft | 12 kts | 275° |
| 2026-04-29 18:21 | 51.77025 | 13.15132 | 265 ft | 11 kts | 272° |
| 2026-04-29 18:21 | 51.76999 | 13.15054 | 266 ft | 7 kts | 185° |
| 2026-04-29 18:22 | 51.76918 | 13.15046 | 265 ft | 9 kts | 184° |
| 2026-04-29 18:22 | 51.76896 | 13.15045 | 263 ft | 0 kts | 183° |
| 2026-04-29 18:22 | 51.76854 | 13.15053 | 265 ft | 11 kts | 120° |
| 2026-04-29 18:22 | 51.76843 | 13.15226 | 264 ft | 28 kts | 97° |
| 2026-04-29 18:23 | 51.76821 | 13.15776 | 332 ft | 66 kts | 92° |
| 2026-04-29 18:23 | 51.76791 | 13.16596 | 484 ft | 79 kts | 90° |
| 2026-04-29 18:23 | 51.76747 | 13.17524 | 623 ft | 84 kts | 90° |
| 2026-04-29 18:23 | 51.76657 | 13.18464 | 744 ft | 87 kts | 107° |
| 2026-04-29 18:24 | 51.76219 | 13.19137 | 822 ft | 92 kts | 144° |
| 2026-04-29 18:24 | 51.75611 | 13.19570 | 854 ft | 97 kts | 147° |
| 2026-04-29 18:24 | 51.75037 | 13.20158 | 839 ft | 99 kts | 131° |
| 2026-04-29 18:24 | 51.74558 | 13.20976 | 819 ft | 99 kts | 125° |
| 2026-04-29 18:25 | 51.74085 | 13.21795 | 834 ft | 99 kts | 126° |
| 2026-04-29 18:25 | 51.73609 | 13.22604 | 835 ft | 98 kts | 127° |
| 2026-04-29 18:25 | 51.73135 | 13.23408 | 845 ft | 98 kts | 125° |
| 2026-04-29 18:25 | 51.72689 | 13.24263 | 850 ft | 99 kts | 123° |
| 2026-04-29 18:26 | 51.72214 | 13.25075 | 825 ft | 100 kts | 127° |
| 2026-04-29 18:26 | 51.71762 | 13.25896 | 856 ft | 98 kts | 122° |
| 2026-04-29 18:26 | 51.71318 | 13.26735 | 880 ft | 97 kts | 125° |
| 2026-04-29 18:26 | 51.70839 | 13.27513 | 884 ft | 99 kts | 128° |
| 2026-04-29 18:27 | 51.70331 | 13.28262 | 878 ft | 100 kts | 134° |
| 2026-04-29 18:27 | 51.69677 | 13.28661 | 834 ft | 105 kts | 166° |
| 2026-04-29 18:27 | 51.68957 | 13.28522 | 852 ft | 105 kts | 185° |
| 2026-04-29 18:27 | 51.68254 | 13.28210 | 856 ft | 105 kts | 185° |
| 2026-04-29 18:28 | 51.67547 | 13.27907 | 843 ft | 106 kts | 188° |
| 2026-04-29 18:28 | 51.66848 | 13.27499 | 876 ft | 105 kts | 193° |
| 2026-04-29 18:28 | 51.66152 | 13.27069 | 863 ft | 108 kts | 191° |
| 2026-04-29 18:28 | 51.65424 | 13.26664 | 850 ft | 115 kts | 191° |
| 2026-04-29 18:29 | 51.64663 | 13.26232 | 845 ft | 117 kts | 192° |
| 2026-04-29 18:29 | 51.64152 | 13.25955 | 834 ft | 118 kts | 191° |
| 2026-04-29 18:29 | 51.63105 | 13.25377 | 813 ft | 120 kts | 190° |
| 2026-04-29 18:29 | 51.62313 | 13.24995 | 808 ft | 117 kts | 188° |
| 2026-04-29 18:30 | 51.61548 | 13.24532 | 802 ft | 119 kts | 196° |
| 2026-04-29 18:30 | 51.60820 | 13.23913 | 815 ft | 118 kts | 204° |
| 2026-04-29 18:30 | 51.60126 | 13.23178 | 810 ft | 119 kts | 206° |
| 2026-04-29 18:30 | 51.59436 | 13.22441 | 838 ft | 117 kts | 205° |
| 2026-04-29 18:31 | 51.58689 | 13.21956 | 828 ft | 118 kts | 185° |
| 2026-04-29 18:31 | 51.57888 | 13.21710 | 846 ft | 116 kts | 183° |
| 2026-04-29 18:31 | 51.57096 | 13.21438 | 838 ft | 117 kts | 186° |
| 2026-04-29 18:31 | 51.56282 | 13.21275 | 823 ft | 118 kts | 171° |
| 2026-04-29 18:32 | 51.55477 | 13.21421 | 807 ft | 118 kts | 162° |
| 2026-04-29 18:32 | 51.53875 | 13.21360 | 831 ft | 118 kts | 192° |
| 2026-04-29 18:32 | 51.53091 | 13.20877 | 824 ft | 120 kts | 193° |
| 2026-04-29 18:33 | 51.52308 | 13.20439 | 837 ft | 119 kts | 193° |
| 2026-04-29 18:33 | 51.51526 | 13.19982 | 837 ft | 118 kts | 199° |
| 2026-04-29 18:33 | 51.50743 | 13.19607 | 798 ft | 119 kts | 180° |
| 2026-04-29 18:33 | 51.49923 | 13.19497 | 806 ft | 117 kts | 175° |
| 2026-04-29 18:34 | 51.49115 | 13.19254 | 786 ft | 121 kts | 200° |
| 2026-04-29 18:34 | 51.48684 | 13.18699 | 814 ft | 119 kts | 217° |
| 2026-04-29 18:34 | 51.47715 | 13.18058 | 799 ft | 115 kts | 166° |
| 2026-04-29 18:34 | 51.46940 | 13.18384 | 810 ft | 115 kts | 153° |
| 2026-04-29 18:35 | 51.46197 | 13.18827 | 829 ft | 112 kts | 152° |
| 2026-04-29 18:35 | 51.45419 | 13.19170 | 792 ft | 117 kts | 157° |
| 2026-04-29 18:35 | 51.44618 | 13.19382 | 764 ft | 120 kts | 173° |
| 2026-04-29 18:35 | 51.43801 | 13.19261 | 801 ft | 114 kts | 165° |
| 2026-04-29 18:36 | 51.43138 | 13.19902 | 781 ft | 110 kts | 125° |
| 2026-04-29 18:36 | 51.42691 | 13.20906 | 766 ft | 111 kts | 108° |
| 2026-04-29 18:36 | 51.42579 | 13.22095 | 797 ft | 107 kts | 79° |
| 2026-04-29 18:36 | 51.42784 | 13.23244 | 801 ft | 109 kts | 62° |
| 2026-04-29 18:37 | 51.43216 | 13.24106 | 779 ft | 88 kts | 30° |
| 2026-04-29 18:37 | 51.43697 | 13.24527 | 768 ft | 75 kts | 21° |
| 2026-04-29 18:37 | 51.44181 | 13.24816 | 736 ft | 73 kts | 18° |
| 2026-04-29 18:37 | 51.44577 | 13.25103 | 723 ft | 74 kts | 36° |
| 2026-04-29 18:38 | 51.44829 | 13.25759 | 723 ft | 67 kts | 84° |
| 2026-04-29 18:38 | 51.44526 | 13.26098 | 729 ft | 66 kts | 208° |
| 2026-04-29 18:38 | 51.44304 | 13.25477 | 747 ft | 66 kts | 251° |
| 2026-04-29 18:38 | 51.44323 | 13.24859 | 672 ft | 48 kts | 351° |
| 2026-04-29 18:39 | 51.44529 | 13.25065 | 574 ft | 33 kts | 72° |
| 2026-04-29 18:39 | 51.44597 | 13.25365 | 507 ft | 26 kts | 66° |
| 2026-04-29 18:39 | 51.44651 | 13.25595 | 447 ft | 20 kts | 73° |
| 2026-04-29 18:39 | 51.44690 | 13.25809 | 394 ft | 19 kts | 73° |
| 2026-04-29 18:40 | 51.44723 | 13.25959 | 381 ft | 11 kts | 69° |
| 2026-04-29 18:40 | 51.44739 | 13.26031 | 385 ft | 4 kts | 69° |
| 2026-04-29 18:40 | 51.44745 | 13.26043 | 386 ft | 1 kts | 68° |
| 2026-04-29 18:40 | 51.44742 | 13.26042 | 389 ft | 0 kts | 66° |
| 2026-04-29 18:41 | 51.44775 | 13.26766 | 677 ft | 75 kts | 126° |
| 2026-04-29 18:41 | 51.44258 | 13.26801 | 834 ft | 102 kts | 191° |
| 2026-04-29 18:42 | 51.43619 | 13.26117 | 930 ft | 118 kts | 227° |
| 2026-04-29 18:42 | 51.43206 | 13.24944 | 1014 ft | 125 kts | 240° |
| 2026-04-29 18:42 | 51.42847 | 13.23642 | 1024 ft | 130 kts | 244° |
| 2026-04-29 18:42 | 51.42525 | 13.22287 | 1028 ft | 131 kts | 247° |
| 2026-04-29 18:43 | 51.42125 | 13.20981 | 1046 ft | 129 kts | 223° |
| 2026-04-29 18:43 | 51.41314 | 13.20608 | 1057 ft | 125 kts | 163° |
| 2026-04-29 18:43 | 51.40564 | 13.21273 | 1048 ft | 125 kts | 138° |
| 2026-04-29 18:43 | 51.39894 | 13.22163 | 1039 ft | 124 kts | 132° |
| 2026-04-29 18:44 | 51.39286 | 13.23155 | 1034 ft | 124 kts | 128° |
| 2026-04-29 18:44 | 51.38607 | 13.24030 | 1017 ft | 125 kts | 142° |
| 2026-04-29 18:44 | 51.37882 | 13.24511 | 1012 ft | 126 kts | 159° |
| 2026-04-29 18:44 | 51.37047 | 13.24887 | 1037 ft | 124 kts | 152° |
| 2026-04-29 18:45 | 51.36341 | 13.25670 | 1040 ft | 124 kts | 131° |
| 2026-04-29 18:45 | 51.35698 | 13.26597 | 1022 ft | 125 kts | 135° |
| 2026-04-29 18:45 | 51.34980 | 13.27370 | 1022 ft | 124 kts | 143° |
| 2026-04-29 18:45 | 51.34251 | 13.28097 | 1028 ft | 124 kts | 140° |
| 2026-04-29 18:46 | 51.33672 | 13.29092 | 1038 ft | 122 kts | 117° |
| 2026-04-29 18:46 | 51.33112 | 13.30129 | 985 ft | 126 kts | 140° |
| 2026-04-29 18:46 | 51.32305 | 13.30640 | 1017 ft | 124 kts | 155° |
| 2026-04-29 18:46 | 51.31508 | 13.31186 | 1032 ft | 123 kts | 142° |
| 2026-04-29 18:47 | 51.30940 | 13.32197 | 1037 ft | 122 kts | 114° |
| 2026-04-29 18:47 | 51.30622 | 13.33457 | 1025 ft | 122 kts | 105° |
| 2026-04-29 18:47 | 51.30344 | 13.34732 | 1037 ft | 120 kts | 104° |
| 2026-04-29 18:47 | 51.30048 | 13.35925 | 1175 ft | 115 kts | 110° |
| 2026-04-29 18:48 | 51.29634 | 13.37027 | 1287 ft | 116 kts | 122° |
| 2026-04-29 18:48 | 51.29042 | 13.37900 | 1393 ft | 116 kts | 138° |
| 2026-04-29 18:48 | 51.28371 | 13.38644 | 1484 ft | 118 kts | 140° |
| 2026-04-29 18:48 | 51.27673 | 13.39377 | 1495 ft | 121 kts | 141° |
| 2026-04-29 18:49 | 51.26959 | 13.40100 | 1492 ft | 121 kts | 140° |
| 2026-04-29 18:49 | 51.26270 | 13.40810 | 1499 ft | 115 kts | 140° |
| 2026-04-29 18:49 | 51.25608 | 13.41518 | 1500 ft | 114 kts | 138° |
| 2026-04-29 18:49 | 51.24963 | 13.42256 | 1498 ft | 113 kts | 137° |
| 2026-04-29 18:50 | 51.24337 | 13.43021 | 1497 ft | 113 kts | 135° |
| 2026-04-29 18:50 | 51.23720 | 13.43821 | 1494 ft | 113 kts | 134° |
| 2026-04-29 18:50 | 51.23098 | 13.44580 | 1493 ft | 113 kts | 137° |
| 2026-04-29 18:50 | 51.22459 | 13.45317 | 1496 ft | 113 kts | 137° |
| 2026-04-29 18:51 | 51.21805 | 13.46042 | 1495 ft | 113 kts | 139° |
| 2026-04-29 18:51 | 51.21143 | 13.46746 | 1493 ft | 114 kts | 140° |
| 2026-04-29 18:51 | 51.20481 | 13.47439 | 1496 ft | 113 kts | 139° |
| 2026-04-29 18:51 | 51.19833 | 13.48152 | 1496 ft | 113 kts | 138° |
| 2026-04-29 18:52 | 51.19191 | 13.48897 | 1496 ft | 113 kts | 136° |
| 2026-04-29 18:52 | 51.18562 | 13.49666 | 1496 ft | 113 kts | 135° |
| 2026-04-29 18:52 | 51.17939 | 13.50439 | 1496 ft | 113 kts | 135° |
| 2026-04-29 18:52 | 51.17307 | 13.51196 | 1493 ft | 113 kts | 137° |
| 2026-04-29 18:53 | 51.16650 | 13.51899 | 1492 ft | 114 kts | 141° |
| 2026-04-29 18:53 | 51.15968 | 13.52539 | 1491 ft | 114 kts | 144° |
| 2026-04-29 18:53 | 51.15256 | 13.53091 | 1491 ft | 115 kts | 149° |
| 2026-04-29 18:53 | 51.14505 | 13.53561 | 1494 ft | 115 kts | 152° |
| 2026-04-29 18:54 | 51.13759 | 13.54014 | 1495 ft | 115 kts | 152° |
| 2026-04-29 18:54 | 51.13014 | 13.54478 | 1495 ft | 115 kts | 151° |
| 2026-04-29 18:54 | 51.12282 | 13.54994 | 1503 ft | 113 kts | 143° |
| 2026-04-29 18:54 | 51.11674 | 13.55768 | 1507 ft | 112 kts | 127° |
| 2026-04-29 18:55 | 51.11198 | 13.56762 | 1503 ft | 112 kts | 117° |
| 2026-04-29 18:55 | 51.10802 | 13.57845 | 1501 ft | 112 kts | 111° |
| 2026-04-29 18:55 | 51.10480 | 13.58957 | 1499 ft | 111 kts | 107° |
| 2026-04-29 18:55 | 51.10209 | 13.60119 | 1498 ft | 111 kts | 103° |
| 2026-04-29 18:56 | 51.09999 | 13.61303 | 1500 ft | 111 kts | 97° |
| 2026-04-29 18:56 | 51.09869 | 13.62528 | 1495 ft | 111 kts | 94° |
| 2026-04-29 18:56 | 51.09699 | 13.63733 | 1488 ft | 111 kts | 101° |
| 2026-04-29 18:56 | 51.09382 | 13.64851 | 1482 ft | 112 kts | 115° |
| 2026-04-29 18:57 | 51.08920 | 13.65811 | 1485 ft | 112 kts | 127° |
| 2026-04-29 18:57 | 51.08284 | 13.66542 | 1474 ft | 115 kts | 148° |
| 2026-04-29 18:57 | 51.07532 | 13.66953 | 1495 ft | 114 kts | 154° |
| 2026-04-29 18:57 | 51.06827 | 13.67520 | 1507 ft | 113 kts | 139° |
| 2026-04-29 18:58 | 51.06412 | 13.68532 | 1518 ft | 110 kts | 96° |
| 2026-04-29 18:58 | 51.06605 | 13.69691 | 1519 ft | 112 kts | 52° |
| 2026-04-29 18:58 | 51.07180 | 13.70545 | 1474 ft | 115 kts | 50° |
| 2026-04-29 18:58 | 51.07309 | 13.71720 | 1425 ft | 112 kts | 105° |
| 2026-04-29 18:59 | 51.06725 | 13.72506 | 1473 ft | 111 kts | 147° |
| 2026-04-29 18:59 | 51.06038 | 13.73084 | 1496 ft | 113 kts | 143° |
| 2026-04-29 18:59 | 51.05525 | 13.73957 | 1514 ft | 109 kts | 104° |
| 2026-04-29 18:59 | 51.05647 | 13.75132 | 1521 ft | 111 kts | 58° |
| 2026-04-29 19:00 | 51.06049 | 13.76185 | 1493 ft | 113 kts | 59° |
| 2026-04-29 19:00 | 51.06374 | 13.77323 | 1483 ft | 112 kts | 70° |
| 2026-04-29 19:00 | 51.06329 | 13.78544 | 1473 ft | 110 kts | 101° |
| 2026-04-29 19:00 | 51.06012 | 13.79667 | 1482 ft | 111 kts | 115° |
| 2026-04-29 19:01 | 51.05490 | 13.80558 | 1480 ft | 113 kts | 136° |
| 2026-04-29 19:01 | 51.04801 | 13.81198 | 1489 ft | 114 kts | 147° |
| 2026-04-29 19:01 | 51.04102 | 13.81796 | 1501 ft | 113 kts | 142° |
| 2026-04-29 19:01 | 51.03467 | 13.82546 | 1503 ft | 113 kts | 133° |
| 2026-04-29 19:02 | 51.02885 | 13.83383 | 1476 ft | 114 kts | 130° |
| 2026-04-29 19:02 | 51.02502 | 13.83962 | 1492 ft | 112 kts | 130° |
| 2026-04-29 19:02 | 51.01735 | 13.85078 | 1494 ft | 113 kts | 131° |
| 2026-04-29 19:02 | 51.01146 | 13.85925 | 1495 ft | 113 kts | 131° |
| 2026-04-29 19:03 | 51.00559 | 13.86776 | 1495 ft | 113 kts | 131° |
| 2026-04-29 19:03 | 50.99904 | 13.87478 | 1480 ft | 115 kts | 147° |
| 2026-04-29 19:03 | 50.99136 | 13.87850 | 1483 ft | 116 kts | 162° |
| 2026-04-29 19:03 | 50.98327 | 13.88014 | 1492 ft | 116 kts | 167° |
| 2026-04-29 19:04 | 50.97533 | 13.88171 | 1498 ft | 116 kts | 164° |
| 2026-04-29 19:04 | 50.96770 | 13.88589 | 1509 ft | 114 kts | 144° |
| 2026-04-29 19:04 | 50.96209 | 13.89444 | 1514 ft | 112 kts | 116° |
| 2026-04-29 19:04 | 50.96040 | 13.90630 | 1516 ft | 111 kts | 84° |
| 2026-04-29 19:05 | 50.96192 | 13.91827 | 1501 ft | 112 kts | 72° |
| 2026-04-29 19:05 | 50.96383 | 13.93036 | 1495 ft | 112 kts | 73° |
| 2026-04-29 19:05 | 50.96514 | 13.94254 | 1486 ft | 112 kts | 82° |
| 2026-04-29 19:05 | 50.96471 | 13.95486 | 1482 ft | 111 kts | 96° |
| 2026-04-29 19:06 | 50.96204 | 13.96630 | 1477 ft | 112 kts | 114° |
| 2026-04-29 19:06 | 50.95731 | 13.97602 | 1489 ft | 112 kts | 125° |
| 2026-04-29 19:06 | 50.94861 | 13.99425 | 1486 ft | 96 kts | 118° |
| 2026-04-29 19:07 | 50.94527 | 14.00314 | 1502 ft | 93 kts | 106° |
| 2026-04-29 19:07 | 50.94523 | 14.00985 | 1495 ft | 92 kts | 65° |
| 2026-04-29 19:07 | 50.95060 | 14.01940 | 1501 ft | 83 kts | 41° |
| 2026-04-29 19:07 | 50.95379 | 14.02661 | 1512 ft | 77 kts | 59° |
| 2026-04-29 19:08 | 50.95573 | 14.03449 | 1510 ft | 77 kts | 63° |
| 2026-04-29 19:08 | 50.95708 | 14.04262 | 1481 ft | 75 kts | 72° |
| 2026-04-29 19:08 | 50.95771 | 14.05077 | 1483 ft | 72 kts | 78° |
| 2026-04-29 19:08 | 50.95825 | 14.05870 | 1478 ft | 72 kts | 75° |
| 2026-04-29 19:09 | 50.95907 | 14.06630 | 1500 ft | 70 kts | 73° |
| 2026-04-29 19:09 | 50.96147 | 14.07336 | 1464 ft | 76 kts | 43° |
| 2026-04-29 19:09 | 50.96509 | 14.07921 | 1482 ft | 73 kts | 40° |
| 2026-04-29 19:09 | 50.96862 | 14.08466 | 1488 ft | 68 kts | 43° |
| 2026-04-29 19:10 | 50.97221 | 14.08924 | 1479 ft | 64 kts | 37° |
| 2026-04-29 19:10 | 50.97569 | 14.09323 | 1439 ft | 62 kts | 34° |
| 2026-04-29 19:10 | 50.97852 | 14.09775 | 1300 ft | 59 kts | 84° |
| 2026-04-29 19:10 | 50.97517 | 14.09968 | 1007 ft | 62 kts | 165° |
| 2026-04-29 19:11 | 50.97065 | 14.10132 | 932 ft | 72 kts | 162° |
| 2026-04-29 19:11 | 50.96575 | 14.10329 | 873 ft | 74 kts | 154° |
| 2026-04-29 19:11 | 50.96198 | 14.10847 | 845 ft | 68 kts | 125° |
| 2026-04-29 19:11 | 50.95836 | 14.11282 | 811 ft | 63 kts | 119° |
| 2026-04-29 19:12 | 50.95547 | 14.11834 | 777 ft | 67 kts | 123° |
| 2026-04-29 19:12 | 50.95384 | 14.12513 | 752 ft | 65 kts | 134° |
| 2026-04-29 19:12 | 50.95087 | 14.13022 | 817 ft | 61 kts | 149° |
| 2026-04-29 19:12 | 50.94911 | 14.12728 | 967 ft | 76 kts | 292° |
| 2026-04-29 19:13 | 50.95288 | 14.13210 | 1093 ft | 74 kts | 114° |
| 2026-04-29 19:13 | 50.95027 | 14.13135 | 942 ft | 73 kts | 301° |
| 2026-04-29 19:13 | 50.95410 | 14.12502 | 802 ft | 84 kts | 301° |
| 2026-04-29 19:13 | 50.95695 | 14.11687 | 782 ft | 83 kts | 320° |
| 2026-04-29 19:14 | 50.96062 | 14.11069 | 775 ft | 77 kts | 332° |
| 2026-04-29 19:14 | 50.96487 | 14.10426 | 837 ft | 93 kts | 333° |
| 2026-04-29 19:14 | 50.97114 | 14.10147 | 956 ft | 96 kts | 358° |
| 2026-04-29 19:14 | 50.97675 | 14.10514 | 1169 ft | 96 kts | 90° |
| 2026-04-29 19:15 | 50.97253 | 14.11213 | 1391 ft | 111 kts | 125° |
| 2026-04-29 19:15 | 50.97400 | 14.12335 | 1507 ft | 121 kts | 47° |
| 2026-04-29 19:15 | 50.97996 | 14.13283 | 1641 ft | 122 kts | 44° |
| 2026-04-29 19:15 | 50.98658 | 14.14179 | 1713 ft | 125 kts | 39° |
| 2026-04-29 19:16 | 50.99347 | 14.15065 | 1751 ft | 127 kts | 40° |
| 2026-04-29 19:16 | 50.99984 | 14.16012 | 1802 ft | 127 kts | 45° |
| 2026-04-29 19:16 | 51.00688 | 14.16879 | 1838 ft | 128 kts | 34° |
| 2026-04-29 19:16 | 51.01511 | 14.17296 | 1833 ft | 135 kts | 352° |
| 2026-04-29 19:17 | 51.02418 | 14.16958 | 1853 ft | 132 kts | 0° |
| 2026-04-29 19:17 | 51.03234 | 14.17493 | 1865 ft | 126 kts | 42° |
| 2026-04-29 19:17 | 51.03698 | 14.18665 | 1863 ft | 126 kts | 67° |
| 2026-04-29 19:17 | 51.03911 | 14.20007 | 1884 ft | 125 kts | 78° |
| 2026-04-29 19:18 | 51.04020 | 14.21395 | 1861 ft | 126 kts | 87° |
| 2026-04-29 19:18 | 51.04035 | 14.22324 | 1857 ft | 126 kts | 84° |
| 2026-04-29 19:18 | 51.04620 | 14.23880 | 1828 ft | 129 kts | 40° |
| 2026-04-29 19:18 | 51.05378 | 14.24676 | 1797 ft | 128 kts | 22° |
| 2026-04-29 19:19 | 51.06130 | 14.24532 | 1802 ft | 115 kts | 306° |
| 2026-04-29 19:19 | 51.06558 | 14.23565 | 1769 ft | 95 kts | 303° |
| 2026-04-29 19:19 | 51.06994 | 14.22952 | 1759 ft | 75 kts | 334° |
| 2026-04-29 19:19 | 51.07324 | 14.23252 | 1645 ft | 60 kts | 93° |
| 2026-04-29 19:20 | 51.07108 | 14.23762 | 1651 ft | 54 kts | 126° |
| 2026-04-29 19:20 | 51.06869 | 14.24235 | 1659 ft | 55 kts | 143° |
| 2026-04-29 19:20 | 51.06601 | 14.23883 | 1648 ft | 70 kts | 282° |
| 2026-04-29 19:20 | 51.06934 | 14.23403 | 1680 ft | 64 kts | 331° |
| 2026-04-29 19:21 | 51.07236 | 14.23585 | 1632 ft | 56 kts | 101° |
| 2026-04-29 19:21 | 51.07011 | 14.23880 | 1516 ft | 31 kts | 152° |
| 2026-04-29 19:21 | 51.06891 | 14.23991 | 1426 ft | 9 kts | 149° |
| 2026-04-29 19:21 | 51.06869 | 14.24015 | 1396 ft | 0 kts | 148° |
| 2026-04-29 19:22 | 51.06869 | 14.24016 | 1393 ft | 0 kts | 146° |
| 2026-04-29 19:22 | 51.06868 | 14.24016 | 1392 ft | 0 kts | 139° |
| 2026-04-29 19:23 | 51.06867 | 14.24018 | 1395 ft | 2 kts | 132° |
| 2026-04-29 19:23 | 51.06732 | 14.24237 | 1455 ft | 53 kts | 130° |
| 2026-04-29 19:23 | 51.06393 | 14.24493 | 1726 ft | 79 kts | 202° |
| 2026-04-29 19:24 | 51.06418 | 14.23536 | 1797 ft | 105 kts | 310° |
| 2026-04-29 19:24 | 51.07075 | 14.22964 | 1843 ft | 115 kts | 343° |
| 2026-04-29 19:24 | 51.07860 | 14.22583 | 1839 ft | 119 kts | 343° |
| 2026-04-29 19:24 | 51.08691 | 14.22237 | 1847 ft | 127 kts | 345° |
| 2026-04-29 19:25 | 51.09557 | 14.21892 | 1847 ft | 128 kts | 345° |
| 2026-04-29 19:25 | 51.10428 | 14.21528 | 1847 ft | 129 kts | 344° |
| 2026-04-29 19:25 | 51.11282 | 14.21149 | 1900 ft | 125 kts | 344° |
| 2026-04-29 19:25 | 51.12102 | 14.20784 | 2005 ft | 125 kts | 344° |
| 2026-04-29 19:26 | 51.12962 | 14.20401 | 2015 ft | 128 kts | 343° |
| 2026-04-29 19:26 | 51.13824 | 14.20012 | 2021 ft | 129 kts | 343° |
| 2026-04-29 19:26 | 51.14677 | 14.19626 | 2024 ft | 129 kts | 343° |
| 2026-04-29 19:26 | 51.15538 | 14.19234 | 2026 ft | 129 kts | 343° |
| 2026-04-29 19:27 | 51.16412 | 14.18837 | 2023 ft | 129 kts | 343° |
| 2026-04-29 19:27 | 51.17276 | 14.18444 | 2023 ft | 129 kts | 343° |
| 2026-04-29 19:27 | 51.18140 | 14.18050 | 2023 ft | 129 kts | 343° |
| 2026-04-29 19:27 | 51.18996 | 14.17660 | 2023 ft | 129 kts | 343° |
| 2026-04-29 19:28 | 51.19866 | 14.17264 | 2023 ft | 129 kts | 343° |
| 2026-04-29 19:28 | 51.20742 | 14.16864 | 2024 ft | 129 kts | 343° |
| 2026-04-29 19:28 | 51.21603 | 14.16471 | 2023 ft | 129 kts | 343° |
| 2026-04-29 19:28 | 51.22471 | 14.16075 | 2023 ft | 129 kts | 343° |
| 2026-04-29 19:29 | 51.23329 | 14.15683 | 2023 ft | 129 kts | 343° |
| 2026-04-29 19:29 | 51.24201 | 14.15284 | 2023 ft | 129 kts | 343° |
| 2026-04-29 19:29 | 51.25064 | 14.14889 | 2023 ft | 129 kts | 343° |
| 2026-04-29 19:29 | 51.25929 | 14.14494 | 2023 ft | 129 kts | 343° |
| 2026-04-29 19:30 | 51.26790 | 14.14100 | 2023 ft | 129 kts | 343° |
| 2026-04-29 19:30 | 51.27655 | 14.13704 | 2023 ft | 129 kts | 343° |
| 2026-04-29 19:30 | 51.28515 | 14.13310 | 2023 ft | 129 kts | 343° |
| 2026-04-29 19:30 | 51.29372 | 14.12855 | 2032 ft | 130 kts | 330° |
| 2026-04-29 19:31 | 51.29967 | 14.11774 | 2038 ft | 132 kts | 298° |
| 2026-04-29 19:31 | 51.30418 | 14.10496 | 2026 ft | 133 kts | 296° |
| 2026-04-29 19:31 | 51.30861 | 14.09196 | 2024 ft | 132 kts | 296° |
| 2026-04-29 19:31 | 51.31297 | 14.07900 | 2024 ft | 132 kts | 295° |
| 2026-04-29 19:32 | 51.31732 | 14.06602 | 2023 ft | 132 kts | 295° |
| 2026-04-29 19:32 | 51.32168 | 14.05293 | 2023 ft | 132 kts | 295° |
| 2026-04-29 19:32 | 51.32598 | 14.03999 | 2023 ft | 132 kts | 295° |
| 2026-04-29 19:32 | 51.33034 | 14.02683 | 2023 ft | 132 kts | 295° |
| 2026-04-29 19:33 | 51.33465 | 14.01379 | 2023 ft | 132 kts | 295° |
| 2026-04-29 19:33 | 51.33895 | 14.00076 | 2023 ft | 132 kts | 295° |
| 2026-04-29 19:33 | 51.34331 | 13.98754 | 2023 ft | 132 kts | 295° |
| 2026-04-29 19:33 | 51.34761 | 13.97448 | 2023 ft | 132 kts | 295° |
| 2026-04-29 19:34 | 51.35187 | 13.96155 | 2023 ft | 132 kts | 295° |
| 2026-04-29 19:34 | 51.35619 | 13.94844 | 2023 ft | 132 kts | 295° |
| 2026-04-29 19:34 | 51.36050 | 13.93532 | 2023 ft | 132 kts | 295° |
| 2026-04-29 19:34 | 51.36479 | 13.92226 | 2024 ft | 132 kts | 295° |
| 2026-04-29 19:35 | 51.36908 | 13.90918 | 2023 ft | 132 kts | 295° |
| 2026-04-29 19:35 | 51.37330 | 13.89633 | 2024 ft | 132 kts | 295° |
| 2026-04-29 19:35 | 51.37764 | 13.88309 | 2023 ft | 132 kts | 295° |
| 2026-04-29 19:35 | 51.38197 | 13.86989 | 2024 ft | 132 kts | 295° |
| 2026-04-29 19:36 | 51.38625 | 13.85683 | 2024 ft | 132 kts | 295° |
| 2026-04-29 19:36 | 51.39051 | 13.84383 | 2024 ft | 132 kts | 295° |
| 2026-04-29 19:36 | 51.39481 | 13.83069 | 2023 ft | 132 kts | 295° |
| 2026-04-29 19:36 | 51.39908 | 13.81764 | 2024 ft | 132 kts | 295° |
| 2026-04-29 19:37 | 51.40339 | 13.80443 | 2024 ft | 132 kts | 295° |
| 2026-04-29 19:37 | 51.40623 | 13.79577 | 2019 ft | 131 kts | 295° |
| 2026-04-29 19:37 | 51.41180 | 13.77865 | 2024 ft | 129 kts | 295° |
| 2026-04-29 19:37 | 51.41596 | 13.76589 | 2023 ft | 129 kts | 295° |
| 2026-04-29 19:38 | 51.42010 | 13.75319 | 2023 ft | 129 kts | 295° |
| 2026-04-29 19:38 | 51.42429 | 13.74033 | 2023 ft | 129 kts | 295° |
| 2026-04-29 19:38 | 51.42845 | 13.72752 | 2023 ft | 129 kts | 295° |
| 2026-04-29 19:38 | 51.43254 | 13.71494 | 2023 ft | 129 kts | 295° |
| 2026-04-29 19:39 | 51.43674 | 13.70203 | 2023 ft | 129 kts | 295° |
| 2026-04-29 19:39 | 51.44087 | 13.68930 | 2023 ft | 129 kts | 294° |
| 2026-04-29 19:39 | 51.44504 | 13.67654 | 2024 ft | 127 kts | 294° |
| 2026-04-29 19:39 | 51.44911 | 13.66396 | 2025 ft | 127 kts | 294° |
| 2026-04-29 19:40 | 51.45320 | 13.65136 | 2023 ft | 128 kts | 294° |
| 2026-04-29 19:40 | 51.45734 | 13.63861 | 2023 ft | 128 kts | 294° |
| 2026-04-29 19:40 | 51.46275 | 13.62761 | 1976 ft | 128 kts | 323° |
| 2026-04-29 19:40 | 51.47046 | 13.62081 | 2019 ft | 126 kts | 331° |
| 2026-04-29 19:41 | 51.47830 | 13.61450 | 2020 ft | 126 kts | 331° |
| 2026-04-29 19:41 | 51.48598 | 13.60843 | 2021 ft | 120 kts | 331° |
| 2026-04-29 19:41 | 51.49350 | 13.60241 | 2023 ft | 119 kts | 331° |
| 2026-04-29 19:41 | 51.50087 | 13.59649 | 2023 ft | 119 kts | 331° |
| 2026-04-29 19:42 | 51.50826 | 13.59055 | 2072 ft | 115 kts | 331° |
| 2026-04-29 19:42 | 51.51282 | 13.58667 | 2229 ft | 108 kts | 328° |
| 2026-04-29 19:42 | 51.52107 | 13.57782 | 2473 ft | 109 kts | 324° |
| 2026-04-29 19:42 | 51.52777 | 13.57058 | 2507 ft | 120 kts | 324° |
| 2026-04-29 19:43 | 51.53482 | 13.56300 | 2518 ft | 122 kts | 324° |
| 2026-04-29 19:43 | 51.54195 | 13.55536 | 2522 ft | 123 kts | 324° |
| 2026-04-29 19:43 | 51.54906 | 13.54773 | 2523 ft | 123 kts | 324° |
| 2026-04-29 19:43 | 51.55615 | 13.54011 | 2523 ft | 123 kts | 324° |
| 2026-04-29 19:44 | 51.56333 | 13.53237 | 2523 ft | 123 kts | 324° |
| 2026-04-29 19:44 | 51.57036 | 13.52478 | 2523 ft | 123 kts | 324° |
| 2026-04-29 19:44 | 51.57750 | 13.51707 | 2523 ft | 123 kts | 324° |
| 2026-04-29 19:44 | 51.58457 | 13.50942 | 2523 ft | 123 kts | 324° |
| 2026-04-29 19:45 | 51.59162 | 13.50178 | 2523 ft | 123 kts | 324° |
| 2026-04-29 19:45 | 51.59874 | 13.49406 | 2523 ft | 123 kts | 324° |
| 2026-04-29 19:45 | 51.60583 | 13.48637 | 2523 ft | 123 kts | 324° |
| 2026-04-29 19:45 | 51.61288 | 13.47871 | 2523 ft | 123 kts | 324° |
| 2026-04-29 19:46 | 51.61997 | 13.47101 | 2523 ft | 122 kts | 324° |
| 2026-04-29 19:46 | 51.62702 | 13.46283 | 2422 ft | 128 kts | 317° |
| 2026-04-29 19:46 | 51.63324 | 13.45229 | 2304 ft | 130 kts | 311° |
| 2026-04-29 19:46 | 51.63919 | 13.44149 | 2184 ft | 130 kts | 308° |
| 2026-04-29 19:47 | 51.64489 | 13.43028 | 2063 ft | 130 kts | 307° |
| 2026-04-29 19:47 | 51.65061 | 13.41886 | 1939 ft | 130 kts | 306° |
| 2026-04-29 19:47 | 51.65620 | 13.40742 | 1814 ft | 129 kts | 306° |
| 2026-04-29 19:47 | 51.66170 | 13.39617 | 1691 ft | 129 kts | 306° |
| 2026-04-29 19:48 | 51.66717 | 13.38468 | 1569 ft | 129 kts | 304° |
| 2026-04-29 19:48 | 51.67083 | 13.37691 | 1484 ft | 129 kts | 304° |
| 2026-04-29 19:48 | 51.67807 | 13.36157 | 1315 ft | 128 kts | 304° |
| 2026-04-29 19:48 | 51.68337 | 13.35029 | 1192 ft | 128 kts | 304° |
| 2026-04-29 19:49 | 51.68876 | 13.33886 | 1069 ft | 126 kts | 303° |
| 2026-04-29 19:49 | 51.69410 | 13.32763 | 966 ft | 122 kts | 304° |
| 2026-04-29 19:49 | 51.69914 | 13.31688 | 910 ft | 115 kts | 302° |
| 2026-04-29 19:49 | 51.70351 | 13.30656 | 908 ft | 109 kts | 299° |
| 2026-04-29 19:50 | 51.70751 | 13.29622 | 905 ft | 108 kts | 298° |
| 2026-04-29 19:50 | 51.71141 | 13.28586 | 904 ft | 108 kts | 298° |
| 2026-04-29 19:50 | 51.71534 | 13.27552 | 900 ft | 108 kts | 299° |
| 2026-04-29 19:50 | 51.71994 | 13.26583 | 897 ft | 107 kts | 308° |
| 2026-04-29 19:51 | 51.72478 | 13.25662 | 903 ft | 108 kts | 308° |
| 2026-04-29 19:51 | 51.72960 | 13.24740 | 904 ft | 108 kts | 308° |
| 2026-04-29 19:51 | 51.73441 | 13.23820 | 904 ft | 108 kts | 308° |
| 2026-04-29 19:51 | 51.73929 | 13.22876 | 904 ft | 108 kts | 308° |
| 2026-04-29 19:52 | 51.74399 | 13.21930 | 903 ft | 107 kts | 308° |
| 2026-04-29 19:52 | 51.74853 | 13.20994 | 905 ft | 106 kts | 305° |
| 2026-04-29 19:52 | 51.75197 | 13.19912 | 885 ft | 107 kts | 288° |
| 2026-04-29 19:52 | 51.75394 | 13.18776 | 889 ft | 103 kts | 282° |
| 2026-04-29 19:53 | 51.75547 | 13.17676 | 867 ft | 96 kts | 280° |
| 2026-04-29 19:53 | 51.75645 | 13.16630 | 855 ft | 94 kts | 280° |
| 2026-04-29 19:53 | 51.75773 | 13.15549 | 829 ft | 98 kts | 282° |
| 2026-04-29 19:53 | 51.76007 | 13.14564 | 778 ft | 88 kts | 314° |
| 2026-04-29 19:54 | 51.76799 | 13.14264 | 567 ft | 55 kts | 52° |
| 2026-04-29 19:54 | 51.76857 | 13.14791 | 421 ft | 40 kts | 96° |
| 2026-04-29 19:54 | 51.76841 | 13.15168 | 339 ft | 28 kts | 94° |
| 2026-04-29 19:55 | 51.76833 | 13.15427 | 287 ft | 16 kts | 92° |
| 2026-04-29 19:55 | 51.76862 | 13.15543 | 267 ft | 15 kts | 19° |
| 2026-04-29 19:55 | 51.76968 | 13.15555 | 270 ft | 16 kts | 5° |
| 2026-04-29 19:55 | 51.77002 | 13.15699 | 270 ft | 14 kts | 99° |
| 2026-04-29 19:56 | 51.77054 | 13.15757 | 276 ft | 14 kts | 6° |
| 2026-04-29 19:56 | 51.77141 | 13.15753 | 276 ft | 9 kts | 311° |
| 2026-04-29 19:56 | 51.77150 | 13.15605 | 276 ft | 11 kts | 263° |
| 2026-04-29 19:56 | 51.77122 | 13.15561 | 274 ft | 1 kts | 272° |
| 2026-04-29 19:57 | 51.77122 | 13.15549 | 270 ft | 0 kts | 275° |
| 2026-04-29 19:57 | 51.77122 | 13.15548 | 268 ft | 0 kts | 271° |